Charlottesville Albemarle Airport
KCHO : now visible

Airfield :











YOU CAN JOIN US ON...

 
LOGIN :

Register | Disclaimer

   EN    FR    IT 

 









Legend :    VFR   Marginal VFR   IFR   Intensive IFR   Very Intensive IFR
Visi :
Ceiling :
>= 8 km
>= 3000ft
5 to 8 km
1000 to 3000 ft
1500m to 5 km
500 to 1000 ft
800 to 1500m
200 to 500 ft
< 800m
< 200 ft
Symbols :   Thunderstorms  Fog  Heavy snow  Heavy precipitations  Wind > 20 kt






- Airport Elevation : 639 ft
- IATA code : CHO


KCHO - Charlottesville Albemarle

CURRENT METAR :
  • 030853Z AUTO 35003KT 10SM CLR 23/22 A2999 RMK AO2 SLP147 T02330217 53002

EXPIRED METARs :
  • 030753Z AUTO 34003KT 9SM SCT070 23/21 A2998 RMK AO2 SLP144 T02330211
  • 030653Z AUTO 00000KT 10SM CLR 23/21 A2998 RMK AO2 SLP142 T02330211

TAF KCHO
Valid from the 03 at 06:00 until the 04 at 06:00 UTC


030524Z 0306/0406 VRB03KT P6SM SCT050 BKN130
TEMPO 0308/0311 5SM BR
FM031200 36005KT P6SM BKN035 BKN130
FM031400 03008KT P6SM SCT050 BKN130
FM032300 VRB03KT P6SM FEW050
KZDC FIR / North America



MET'MAP, your aeronautical weather chart ! - Copyright ORBIFLY December 2007 - Disclaimer

ORBIFLY MET'MAP TEAM :

Programming & Development : Alexandra Zaïnal
Original concept : Baudouin d'Aumeries
Technical & hardware support : Manuel Goepfert
Assistance : Marc-Olivier Méhu




SOURCES & CREDITS :

   NOAA       Earth
Advisory